Main page
METAR-TAF:

METAR-TAF

Airports :

Brighton City Airport (Shoreham Airport)

Brighton, England

latitude: 50-50N, longitude: 000-17W, elevation: 2 m

Current weather observation

The report was made 7 hours and 16 minutes ago, at 17:50 UTC
Wind 13 kt from the Southwest
Temperature 10°C
Humidity 93%
Pressure 1025 hPa
Visibility 10 km or more
Broken clouds at a height of 2000 ft

METAR: EGKA 201750Z 22013KT 9999 BKN020 10/09 Q1025

Time: 01:06 (01:06 UTC)

Forecast

The report was made 8 hours and 4 minutes ago, at 17:02 UTC
Forecast valid from 20 at 18 UTC to 20 at 20 UTC
Wind 12 kt from the South/Southwest
Visibility 10 km or more
Broken clouds at a height of 2000 ft
Probability 40% :
Temporary
from 20 at 18 UTC to 20 at 20 UTC
Wind 15 kt from the Southwest with gusts up to 25 kt
Probability 30% :
Temporary
from 20 at 18 UTC to 20 at 20 UTC
Broken clouds at a height of 800 ft

TAF: EGKA 201702Z 2018/2020 21012KT 9999 BKN020 PROB40 TEMPO 2018/2020 22015G25KT PROB30 TEMPO 2018/2020 BKN008

Weather observations and forecasts of more than 4000 airports (METAR and TAF reports).

The available stations are represented by yellow and red dots on the map.

Hover mouse over dot to see the name of the station.

Then click to see weather observations and forecasts.

To change the map : click on the green buttons with a black cross to zoom in, on the green button with a dash to zoom out, or on the green arrows for adjacent maps.


METAR-TAF: